^^
Your Local Weather - Clay, NY Station Historical Data
Daily Summary for June 17, 2017 Units:  English    Metric   Both
« Previous Day
Next Day »
Daily Weekly Monthly Yearly Custom
  High: Low: Average:
Temperature: 87.0 °F 61.1 °F 75 °F
Dew Point: 69.0 °F 59.3 °F 64.2 °F
Humidity: 94% 49% 72%
Wind Speed: 6.0mph 0.0mph 2.3mph
Wind Gust: 9.0mph - -
Wind- - SE
Pressure: 29.83 in 29.70 in -
Precipitation: 0.00 in    
Historical Graphs
 
 
Tabular Data for June 17, 2017
Time Temperature Dew Point Pressure Wind Wind Speed Wind Gust Humidity Rainfall Rate (Hourly) solar
00:04 63.5 °F 60.5 °F 29.82 in East 1.0 mph 1.0 mph 90% 0.00 in 0 W/m2
00:09 63.5 °F 60.5 °F 29.82 in ENE 1.0 mph 4.0 mph 90% 0.00 in 0 W/m2
00:15 63.4 °F 60.4 °F 29.82 in ENE 1.0 mph 4.0 mph 90% 0.00 in 0 W/m2
00:22 63.3 °F 60.3 °F 29.82 in ENE 1.0 mph 2.0 mph 90% 0.00 in 0 W/m2
00:28 63.3 °F 60.3 °F 29.83 in ENE 1.0 mph 2.0 mph 90% 0.00 in 0 W/m2
00:34 63.3 °F 60.6 °F 29.82 in ENE 1.0 mph 2.0 mph 91% 0.00 in 0 W/m2
00:39 63.2 °F 60.5 °F 29.82 in NE 1.0 mph 1.0 mph 91% 0.00 in 0 W/m2
00:45 63.1 °F 60.4 °F 29.82 in NE 1.0 mph 1.0 mph 91% 0.00 in 0 W/m2
00:52 63.1 °F 60.4 °F 29.82 in ENE 1.0 mph 2.0 mph 91% 0.00 in 0 W/m2
00:58 63.1 °F 60.4 °F 29.82 in ENE 1.0 mph 5.0 mph 91% 0.00 in 0 W/m2
01:04 63.1 °F 60.4 °F 29.82 in ENE 2.0 mph 4.0 mph 91% 0.00 in 0 W/m2
01:09 63.0 °F 60.3 °F 29.82 in ENE 1.0 mph 1.0 mph 91% 0.00 in 0 W/m2
01:15 62.9 °F 60.2 °F 29.81 in ENE 1.0 mph 2.0 mph 91% 0.00 in 0 W/m2
01:22 62.8 °F 60.1 °F 29.81 in ENE 1.0 mph 3.0 mph 91% 0.00 in 0 W/m2
01:28 62.8 °F 60.4 °F 29.81 in ENE 1.0 mph 3.0 mph 92% 0.00 in 0 W/m2
01:33 62.8 °F 60.4 °F 29.81 in ENE 1.0 mph 4.0 mph 92% 0.00 in 0 W/m2
01:40 62.8 °F 60.4 °F 29.81 in ENE 1.0 mph 1.0 mph 92% 0.00 in 0 W/m2
01:45 62.8 °F 60.4 °F 29.81 in ENE 1.0 mph 1.0 mph 92% 0.00 in 0 W/m2
01:52 62.7 °F 60.3 °F 29.80 in East 1.0 mph 1.0 mph 92% 0.00 in 0 W/m2
01:58 62.6 °F 60.2 °F 29.80 in East 1.0 mph 1.0 mph 92% 0.00 in 0 W/m2
02:03 62.6 °F 60.2 °F 29.80 in East 1.0 mph 1.0 mph 92% 0.00 in 0 W/m2
02:09 62.6 °F 60.2 °F 29.80 in East 1.0 mph 2.0 mph 92% 0.00 in 0 W/m2
02:16 62.5 °F 60.1 °F 29.80 in East 1.0 mph 2.0 mph 92% 0.00 in 0 W/m2
02:22 62.5 °F 60.1 °F 29.80 in Calm     92% 0.00 in 0 W/m2
02:28 62.5 °F 60.1 °F 29.80 in Calm     92% 0.00 in 0 W/m2
02:33 62.4 °F 60.0 °F 29.80 in Calm     92% 0.00 in 0 W/m2
02:40 62.4 °F 60.0 °F 29.80 in Calm   1.0 mph 92% 0.00 in 0 W/m2
02:46 62.3 °F 59.9 °F 29.80 in ENE 1.0 mph 1.0 mph 92% 0.00 in 0 W/m2
02:52 62.2 °F 60.2 °F 29.80 in ENE 1.0 mph 1.0 mph 93% 0.00 in 0 W/m2
02:58 62.3 °F 60.2 °F 29.80 in ENE 1.0 mph 2.0 mph 93% 0.00 in 0 W/m2
03:04 62.2 °F 60.2 °F 29.80 in ENE 1.0 mph 2.0 mph 93% 0.00 in 0 W/m2
03:09 62.1 °F 60.1 °F 29.80 in ENE 1.0 mph 1.0 mph 93% 0.00 in 0 W/m2
03:16 62.2 °F 60.2 °F 29.80 in ENE 1.0 mph 1.0 mph 93% 0.00 in 0 W/m2
03:22 62.1 °F 60.1 °F 29.80 in ENE 1.0 mph 1.0 mph 93% 0.00 in 0 W/m2
03:28 62.1 °F 60.1 °F 29.80 in ENE 1.0 mph 3.0 mph 93% 0.00 in 0 W/m2
03:33 62.0 °F 60.0 °F 29.80 in Calm   3.0 mph 93% 0.00 in 0 W/m2
03:39 61.9 °F 59.9 °F 29.80 in Calm   2.0 mph 93% 0.00 in 0 W/m2
03:45 61.9 °F 59.9 °F 29.80 in ENE 1.0 mph 2.0 mph 93% 0.00 in 0 W/m2
03:52 61.9 °F 59.9 °F 29.80 in ENE 1.0 mph 2.0 mph 93% 0.00 in 0 W/m2
03:58 61.8 °F 59.8 °F 29.80 in ENE 1.0 mph 2.0 mph 93% 0.00 in 0 W/m2
04:03 61.8 °F 59.8 °F 29.80 in Calm   1.0 mph 93% 0.00 in 0 W/m2
04:09 61.6 °F 59.6 °F 29.80 in Calm     93% 0.00 in 0 W/m2
04:15 61.6 °F 59.6 °F 29.80 in Calm     93% 0.00 in 0 W/m2
04:22 61.7 °F 59.7 °F 29.80 in ENE 1.0 mph 2.0 mph 93% 0.00 in 0 W/m2
04:28 61.5 °F 59.5 °F 29.80 in ENE 1.0 mph 3.0 mph 93% 0.00 in 0 W/m2
04:34 61.7 °F 59.7 °F 29.80 in ENE 2.0 mph 2.0 mph 93% 0.00 in 0 W/m2
04:40 61.6 °F 59.6 °F 29.80 in East 1.0 mph 1.0 mph 93% 0.00 in 0 W/m2
04:45 61.6 °F 59.6 °F 29.80 in East 1.0 mph 2.0 mph 93% 0.00 in 0 W/m2
04:52 61.5 °F 59.5 °F 29.80 in East 1.0 mph 1.0 mph 93% 0.00 in 0 W/m2
04:58 61.4 °F 59.4 °F 29.80 in Calm   1.0 mph 93% 0.00 in 0 W/m2
05:04 61.4 °F 59.4 °F 29.80 in Calm   1.0 mph 93% 0.00 in 0 W/m2
05:09 61.4 °F 59.4 °F 29.80 in East 1.0 mph 1.0 mph 93% 0.00 in 0 W/m2
05:16 61.3 °F 59.3 °F 29.80 in Calm   1.0 mph 93% 0.00 in 0 W/m2
05:22 61.1 °F 59.4 °F 29.80 in Calm     94% 0.00 in 0 W/m2
05:28 61.2 °F 59.5 °F 29.80 in Calm   3.0 mph 94% 0.00 in 0 W/m2
05:33 61.4 °F 59.7 °F 29.80 in Calm   1.0 mph 94% 0.00 in 5 W/m2
05:39 61.4 °F 59.7 °F 29.81 in East 1.0 mph 1.0 mph 94% 0.00 in 11 W/m2
05:46 61.5 °F 59.8 °F 29.81 in Calm   1.0 mph 94% 0.00 in 14 W/m2
05:58 61.6 °F 59.9 °F 29.82 in Calm     94% 0.00 in 26 W/m2
06:03 61.8 °F 60.1 °F 29.82 in Calm     94% 0.00 in 28 W/m2
06:09 61.8 °F 60.1 °F 29.82 in East 1.0 mph 3.0 mph 94% 0.00 in 32 W/m2
06:15 61.9 °F 60.2 °F 29.82 in East 1.0 mph 3.0 mph 94% 0.00 in 37 W/m2
06:22 62.1 °F 60.4 °F 29.82 in East 1.0 mph 1.0 mph 94% 0.00 in 65 W/m2
06:28 62.5 °F 60.7 °F 29.82 in Calm   2.0 mph 94% 0.00 in 69 W/m2
06:33 62.7 °F 60.9 °F 29.82 in East 1.0 mph 2.0 mph 94% 0.00 in 84 W/m2
06:39 62.8 °F 61.0 °F 29.82 in East 1.0 mph 1.0 mph 94% 0.00 in 81 W/m2
06:46 63.1 °F 61.3 °F 29.82 in ENE 1.0 mph 3.0 mph 94% 0.00 in 130 W/m2
06:52 63.6 °F 61.8 °F 29.82 in ENE 1.0 mph 1.0 mph 94% 0.00 in 158 W/m2
06:58 64.2 °F 62.4 °F 29.82 in ENE 1.0 mph 1.0 mph 94% 0.00 in 178 W/m2
07:03 64.6 °F 62.5 °F 29.82 in ENE 2.0 mph 3.0 mph 93% 0.00 in 193 W/m2
07:09 65.2 °F 63.1 °F 29.82 in ENE 2.0 mph 5.0 mph 93% 0.00 in 209 W/m2
07:16 65.9 °F 63.5 °F 29.82 in ENE 2.0 mph 5.0 mph 92% 0.00 in 223 W/m2
07:22 66.7 °F 64.0 °F 29.83 in ENE 1.0 mph 1.0 mph 91% 0.00 in 234 W/m2
07:28 67.4 °F 63.7 °F 29.83 in ENE 1.0 mph 1.0 mph 88% 0.00 in 246 W/m2
07:33 68.2 °F 64.2 °F 29.83 in ENE 1.0 mph 1.0 mph 87% 0.00 in 264 W/m2
07:39 68.6 °F 64.2 °F 29.82 in Calm     86% 0.00 in 294 W/m2
07:45 69.3 °F 64.6 °F 29.82 in Calm     85% 0.00 in 294 W/m2
07:52 69.9 °F 64.5 °F 29.83 in ESE 1.0 mph 1.0 mph 83% 0.00 in 332 W/m2
07:58 70.3 °F 64.9 °F 29.83 in Calm   1.0 mph 83% 0.00 in 355 W/m2
08:03 70.8 °F 65.0 °F 29.83 in Calm     82% 0.00 in 374 W/m2
08:10 70.9 °F 64.8 °F 29.83 in SE 1.0 mph 1.0 mph 81% 0.00 in 403 W/m2
08:15 71.4 °F 64.9 °F 29.83 in ENE 1.0 mph 4.0 mph 80% 0.00 in 380 W/m2
08:22 71.6 °F 65.5 °F 29.82 in SSE 1.0 mph 5.0 mph 81% 0.00 in 394 W/m2
08:28 71.7 °F 65.6 °F 29.82 in South 1.0 mph 5.0 mph 81% 0.00 in 385 W/m2
08:33 71.7 °F 65.2 °F 29.82 in SSE 2.0 mph 4.0 mph 80% 0.00 in 403 W/m2
08:40 71.9 °F 65.4 °F 29.82 in NE 3.0 mph 3.0 mph 80% 0.00 in 445 W/m2
08:45 72.5 °F 65.6 °F 29.82 in South 1.0 mph 3.0 mph 79% 0.00 in 441 W/m2
08:52 73.2 °F 65.9 °F 29.82 in ENE 1.0 mph 3.0 mph 78% 0.00 in 448 W/m2
08:58 73.5 °F 66.2 °F 29.82 in East 2.0 mph 4.0 mph 78% 0.00 in 485 W/m2
09:03 73.7 °F 66.0 °F 29.82 in SE 1.0 mph 1.0 mph 77% 0.00 in 512 W/m2
09:09 74.5 °F 66.8 °F 29.82 in NNE 1.0 mph 1.0 mph 77% 0.00 in 504 W/m2
09:15 74.7 °F 66.6 °F 29.82 in SSE 2.0 mph 4.0 mph 76% 0.00 in 538 W/m2
09:22 74.8 °F 66.3 °F 29.82 in ESE 1.0 mph 1.0 mph 75% 0.00 in 561 W/m2
09:28 75.4 °F 67.3 °F 29.82 in SE 1.0 mph 1.0 mph 76% 0.00 in 589 W/m2
09:33 75.8 °F 66.5 °F 29.82 in SE 1.0 mph 4.0 mph 73% 0.00 in 591 W/m2
09:39 75.9 °F 66.2 °F 29.82 in ENE 2.0 mph 2.0 mph 72% 0.00 in 622 W/m2
09:46 76.3 °F 65.8 °F 29.82 in NE 1.0 mph 5.0 mph 70% 0.00 in 629 W/m2
09:52 76.6 °F 67.3 °F 29.82 in SSE 2.0 mph 2.0 mph 73% 0.00 in 642 W/m2
09:58 77.0 °F 66.9 °F 29.81 in SE 1.0 mph 2.0 mph 71% 0.00 in 664 W/m2
10:04 77.6 °F 66.6 °F 29.80 in Calm   3.0 mph 69% 0.00 in 691 W/m2
10:10 77.9 °F 66.5 °F 29.80 in South 1.0 mph 1.0 mph 68% 0.00 in 707 W/m2
10:15 77.8 °F 66.4 °F 29.80 in SSW 1.0 mph 1.0 mph 68% 0.00 in 722 W/m2
10:22 78.2 °F 66.8 °F 29.80 in SSE 2.0 mph 4.0 mph 68% 0.00 in 737 W/m2
10:28 78.7 °F 67.2 °F 29.80 in East 1.0 mph 4.0 mph 68% 0.00 in 752 W/m2
10:33 79.0 °F 68.0 °F 29.80 in ESE 1.0 mph 1.0 mph 69% 0.00 in 768 W/m2
10:39 79.3 °F 65.1 °F 29.80 in SE 1.0 mph 2.0 mph 62% 0.00 in 795 W/m2
10:46 79.2 °F 67.7 °F 29.80 in East 1.0 mph 2.0 mph 68% 0.00 in 810 W/m2
10:52 79.7 °F 68.2 °F 29.80 in ESE 1.0 mph 1.0 mph 68% 0.00 in 800 W/m2
10:58 79.6 °F 67.2 °F 29.80 in ENE 2.0 mph 5.0 mph 66% 0.00 in 840 W/m2
11:03 80.0 °F 68.9 °F 29.80 in ENE 3.0 mph 3.0 mph 69% 0.00 in 837 W/m2
11:09 80.4 °F 66.2 °F 29.79 in SSW 2.0 mph 4.0 mph 62% 0.00 in 842 W/m2
11:16 80.7 °F 66.5 °F 29.80 in SSE 3.0 mph 5.0 mph 62% 0.00 in 881 W/m2
11:22 80.8 °F 67.0 °F 29.79 in ESE 3.0 mph 7.0 mph 63% 0.00 in 854 W/m2
11:28 81.3 °F 66.6 °F 29.79 in South 3.0 mph 7.0 mph 61% 0.00 in 867 W/m2
11:33 81.4 °F 67.1 °F 29.78 in SE 3.0 mph 3.0 mph 62% 0.00 in 868 W/m2
11:39 81.7 °F 66.5 °F 29.79 in SW 2.0 mph 2.0 mph 60% 0.00 in 905 W/m2
11:46 81.8 °F 68.4 °F 29.79 in South 2.0 mph 4.0 mph 64% 0.00 in 900 W/m2
11:52 81.9 °F 69.0 °F 29.79 in SE 2.0 mph 6.0 mph 65% 0.00 in 954 W/m2
11:58 82.3 °F 67.0 °F 29.79 in WSW 2.0 mph 6.0 mph 60% 0.00 in 963 W/m2
12:03 82.9 °F 68.1 °F 29.79 in South 1.0 mph 3.0 mph 61% 0.00 in 969 W/m2
12:09 82.6 °F 66.3 °F 29.79 in South 1.0 mph 1.0 mph 58% 0.00 in 264 W/m2
12:22 82.8 °F 66.5 °F 29.78 in South 3.0 mph 7.0 mph 58% 0.00 in 962 W/m2
12:28 83.0 °F 66.2 °F 29.78 in SSE 3.0 mph 7.0 mph 57% 0.00 in 1056 W/m2
12:33 83.0 °F 66.2 °F 29.78 in ENE 3.0 mph 4.0 mph 57% 0.00 in 932 W/m2
12:39 83.3 °F 67.0 °F 29.77 in SSE 3.0 mph 4.0 mph 58% 0.00 in 1009 W/m2
12:46 83.7 °F 67.8 °F 29.77 in SSW 3.0 mph 7.0 mph 59% 0.00 in 1004 W/m2
12:52 83.4 °F 67.6 °F 29.78 in SSW 4.0 mph 4.0 mph 59% 0.00 in 1083 W/m2
12:58 82.9 °F 65.1 °F 29.78 in SW 4.0 mph 5.0 mph 55% 0.00 in 265 W/m2
13:03 82.4 °F 66.1 °F 29.78 in South 3.0 mph 4.0 mph 58% 0.00 in 285 W/m2
13:09 83.0 °F 66.7 °F 29.78 in SSE 3.0 mph 3.0 mph 58% 0.00 in 285 W/m2
13:16 83.4 °F 66.6 °F 29.77 in SW 3.0 mph 3.0 mph 57% 0.00 in 1090 W/m2
13:22 84.5 °F 67.1 °F 29.77 in South 3.0 mph 6.0 mph 56% 0.00 in 1020 W/m2
13:28 83.8 °F 66.9 °F 29.77 in SE 5.0 mph 8.0 mph 57% 0.00 in 1004 W/m2
13:33 83.4 °F 67.6 °F 29.77 in SSE 4.0 mph 6.0 mph 59% 0.00 in 197 W/m2
13:39 83.4 °F 66.6 °F 29.76 in SSW 4.0 mph 4.0 mph 57% 0.00 in 227 W/m2
13:48 83.7 °F 66.8 °F 29.76 in South 5.0 mph 6.0 mph 57% 0.00 in 311 W/m2
13:53 83.8 °F 66.9 °F 29.75 in SE 5.0 mph 5.0 mph 57% 0.00 in 1000 W/m2
13:59 83.8 °F 68.9 °F 29.75 in South 5.0 mph 5.0 mph 61% 0.00 in 1067 W/m2
14:05 84.1 °F 67.7 °F 29.75 in South 5.0 mph 7.0 mph 58% 0.00 in 946 W/m2
14:12 83.1 °F 66.3 °F 29.75 in South 5.0 mph 7.0 mph 57% 0.00 in 313 W/m2
14:19 83.7 °F 65.8 °F 29.75 in South 6.0 mph 6.0 mph 55% 0.00 in 928 W/m2
14:25 84.5 °F 65.5 °F 29.75 in South 5.0 mph 9.0 mph 53% 0.00 in 914 W/m2
14:32 84.5 °F 64.9 °F 29.74 in SSW 5.0 mph 5.0 mph 52% 0.00 in 846 W/m2
14:38 84.4 °F 65.4 °F 29.74 in SSE 6.0 mph 6.0 mph 53% 0.00 in 937 W/m2
14:44 83.8 °F 65.9 °F 29.74 in South 6.0 mph 7.0 mph 55% 0.00 in 214 W/m2
14:50 84.1 °F 65.1 °F 29.74 in South 6.0 mph 6.0 mph 53% 0.00 in 870 W/m2
14:55 84.5 °F 66.0 °F 29.74 in SSW 5.0 mph 6.0 mph 54% 0.00 in 856 W/m2
15:02 84.0 °F 66.1 °F 29.74 in South 5.0 mph 7.0 mph 55% 0.00 in 330 W/m2
15:08 83.9 °F 65.5 °F 29.74 in South 5.0 mph 7.0 mph 54% 0.00 in 359 W/m2
15:13 84.5 °F 65.5 °F 29.74 in SSE 4.0 mph 5.0 mph 53% 0.00 in 867 W/m2
15:19 85.2 °F 66.1 °F 29.73 in SSW 4.0 mph 4.0 mph 53% 0.00 in 796 W/m2
15:26 84.6 °F 65.0 °F 29.74 in South 4.0 mph 6.0 mph 52% 0.00 in 195 W/m2
15:32 84.5 °F 66.0 °F 29.74 in SSE 5.0 mph 5.0 mph 54% 0.00 in 860 W/m2
15:38 85.6 °F 67.0 °F 29.74 in SW 4.0 mph 5.0 mph 54% 0.00 in 889 W/m2
15:44 85.9 °F 66.8 °F 29.74 in SSE 4.0 mph 6.0 mph 53% 0.00 in 870 W/m2
15:50 85.6 °F 66.5 °F 29.74 in SSW 5.0 mph 5.0 mph 53% 0.00 in 833 W/m2
15:55 85.4 °F 65.2 °F 29.74 in SW 5.0 mph 7.0 mph 51% 0.00 in 195 W/m2
16:02 86.0 °F 66.3 °F 29.74 in SW 5.0 mph 6.0 mph 52% 0.00 in 761 W/m2
16:08 86.3 °F 66.6 °F 29.73 in SW 5.0 mph 6.0 mph 52% 0.00 in 737 W/m2
16:14 86.6 °F 65.2 °F 29.73 in WSW 4.0 mph 5.0 mph 49% 0.00 in 791 W/m2
16:19 86.5 °F 66.2 °F 29.73 in SE 4.0 mph 4.0 mph 51% 0.00 in 770 W/m2
16:25 86.8 °F 66.5 °F 29.73 in SW 4.0 mph 6.0 mph 51% 0.00 in 519 W/m2
16:32 87.0 °F 66.1 °F 29.72 in West 4.0 mph 4.0 mph 50% 0.00 in 134 W/m2
16:38 85.9 °F 66.2 °F 29.72 in South 4.0 mph 8.0 mph 52% 0.00 in 144 W/m2
16:46 86.4 °F 66.1 °F 29.72 in West 3.0 mph 4.0 mph 51% 0.00 in 696 W/m2
16:52 86.9 °F 67.2 °F 29.72 in SW 3.0 mph 5.0 mph 52% 0.00 in 638 W/m2
16:58 86.8 °F 65.3 °F 29.72 in SSW 4.0 mph 7.0 mph 49% 0.00 in 213 W/m2
17:05 86.6 °F 66.3 °F 29.72 in WSW 5.0 mph 6.0 mph 51% 0.00 in 255 W/m2
17:12 86.5 °F 66.8 °F 29.72 in WSW 4.0 mph 4.0 mph 52% 0.00 in 148 W/m2
17:18 85.8 °F 66.1 °F 29.72 in South 3.0 mph 9.0 mph 52% 0.00 in 135 W/m2
17:24 85.0 °F 66.0 °F 29.72 in SSE 4.0 mph 6.0 mph 53% 0.00 in 114 W/m2
17:29 84.6 °F 66.7 °F 29.72 in South 4.0 mph 5.0 mph 55% 0.00 in 98 W/m2
17:35 84.9 °F 65.9 °F 29.72 in SW 4.0 mph 5.0 mph 53% 0.00 in 100 W/m2
17:42 85.1 °F 65.5 °F 29.72 in SW 4.0 mph 5.0 mph 52% 0.00 in 88 W/m2
17:48 84.9 °F 65.3 °F 29.72 in WSW 3.0 mph 9.0 mph 52% 0.00 in 70 W/m2
17:53 84.7 °F 66.2 °F 29.72 in West 4.0 mph 5.0 mph 54% 0.00 in 84 W/m2
18:00 85.0 °F 67.0 °F 29.71 in SSW 3.0 mph 4.0 mph 55% 0.00 in 83 W/m2
18:06 85.2 °F 66.1 °F 29.72 in SW 4.0 mph 6.0 mph 53% 0.00 in 86 W/m2
18:12 85.3 °F 66.2 °F 29.72 in South 5.0 mph 6.0 mph 53% 0.00 in 90 W/m2
18:18 85.0 °F 65.4 °F 29.72 in SW 5.0 mph 7.0 mph 52% 0.00 in 67 W/m2
18:23 84.3 °F 64.8 °F 29.72 in SW 5.0 mph 8.0 mph 52% 0.00 in 56 W/m2
18:30 83.9 °F 64.9 °F 29.72 in South 5.0 mph 5.0 mph 53% 0.00 in 58 W/m2
18:35 84.0 °F 65.0 °F 29.72 in SSE 4.0 mph 6.0 mph 53% 0.00 in 98 W/m2
18:42 84.2 °F 65.2 °F 29.71 in SW 5.0 mph 5.0 mph 53% 0.00 in 62 W/m2
18:48 84.0 °F 65.6 °F 29.71 in South 4.0 mph 5.0 mph 54% 0.00 in 60 W/m2
18:54 83.7 °F 65.3 °F 29.71 in South 4.0 mph 4.0 mph 54% 0.00 in 76 W/m2
19:00 83.4 °F 65.0 °F 29.71 in South 4.0 mph 4.0 mph 54% 0.00 in 76 W/m2
19:05 83.3 °F 65.4 °F 29.71 in WSW 4.0 mph 4.0 mph 55% 0.00 in 74 W/m2
19:12 83.2 °F 65.4 °F 29.70 in SW 4.0 mph 5.0 mph 55% 0.00 in 72 W/m2
19:18 83.4 °F 65.0 °F 29.70 in SSW 5.0 mph 5.0 mph 54% 0.00 in 65 W/m2
19:25 83.4 °F 64.5 °F 29.71 in SW 5.0 mph 7.0 mph 53% 0.00 in 54 W/m2
19:32 83.4 °F 64.5 °F 29.71 in SSW 5.0 mph 5.0 mph 53% 0.00 in 44 W/m2
19:38 83.2 °F 64.8 °F 29.71 in South 5.0 mph 6.0 mph 54% 0.00 in 32 W/m2
19:44 83.0 °F 65.2 °F 29.71 in South 4.0 mph 6.0 mph 55% 0.00 in 35 W/m2
19:49 82.8 °F 64.5 °F 29.71 in South 4.0 mph 5.0 mph 54% 0.00 in 28 W/m2
19:55 82.6 °F 64.8 °F 29.71 in South 4.0 mph 5.0 mph 55% 0.00 in 33 W/m2
20:02 82.2 °F 64.4 °F 29.71 in South 4.0 mph 4.0 mph 55% 0.00 in 23 W/m2
20:08 82.0 °F 64.8 °F 29.70 in SSE 3.0 mph 5.0 mph 56% 0.00 in 18 W/m2
20:14 81.8 °F 64.6 °F 29.71 in SSW 3.0 mph 4.0 mph 56% 0.00 in 14 W/m2
20:19 81.6 °F 64.9 °F 29.71 in South 2.0 mph 2.0 mph 57% 0.00 in 14 W/m2
20:25 81.3 °F 64.6 °F 29.71 in SSE 2.0 mph 2.0 mph 57% 0.00 in 9 W/m2
20:32 80.9 °F 65.2 °F 29.71 in Calm   1.0 mph 59% 0.00 in 7 W/m2
20:38 80.5 °F 64.9 °F 29.71 in South 1.0 mph 3.0 mph 59% 0.00 in 0 W/m2
20:43 80.5 °F 64.9 °F 29.71 in SSW 2.0 mph 3.0 mph 59% 0.00 in 0 W/m2
20:49 80.1 °F 65.0 °F 29.71 in South 2.0 mph 2.0 mph 60% 0.00 in 0 W/m2
20:56 79.8 °F 64.7 °F 29.71 in South 2.0 mph 5.0 mph 60% 0.00 in 0 W/m2
21:02 80.0 °F 64.9 °F 29.70 in South 4.0 mph 7.0 mph 60% 0.00 in 0 W/m2
21:08 80.0 °F 64.9 °F 29.71 in SSE 4.0 mph 7.0 mph 60% 0.00 in 0 W/m2
21:14 79.7 °F 65.1 °F 29.71 in South 3.0 mph 4.0 mph 61% 0.00 in 0 W/m2
21:19 79.4 °F 65.2 °F 29.72 in South 2.0 mph 5.0 mph 62% 0.00 in 0 W/m2
21:25 79.3 °F 65.1 °F 29.72 in SSE 3.0 mph 5.0 mph 62% 0.00 in 0 W/m2
21:32 79.1 °F 65.4 °F 29.72 in SSE 2.0 mph 3.0 mph 63% 0.00 in 0 W/m2
21:38 78.7 °F 65.5 °F 29.72 in SSE 1.0 mph 3.0 mph 64% 0.00 in 0 W/m2
21:45 78.3 °F 65.6 °F 29.73 in South 1.0 mph 2.0 mph 65% 0.00 in 0 W/m2
21:52 78.1 °F 65.4 °F 29.73 in SE 1.0 mph 2.0 mph 65% 0.00 in 0 W/m2
21:58 77.7 °F 65.4 °F 29.73 in SE 1.0 mph 2.0 mph 66% 0.00 in 0 W/m2
22:03 77.8 °F 66.0 °F 29.73 in SSE 2.0 mph 5.0 mph 67% 0.00 in 0 W/m2
22:09 77.9 °F 66.1 °F 29.73 in SSE 3.0 mph 4.0 mph 67% 0.00 in 0 W/m2
22:15 77.9 °F 66.1 °F 29.73 in SSE 3.0 mph 6.0 mph 67% 0.00 in 0 W/m2
22:22 77.9 °F 66.1 °F 29.73 in SSW 3.0 mph 4.0 mph 67% 0.00 in 0 W/m2
22:28 77.7 °F 65.9 °F 29.74 in South 3.0 mph 4.0 mph 67% 0.00 in 0 W/m2
22:34 77.7 °F 65.9 °F 29.74 in SSE 3.0 mph 3.0 mph 67% 0.00 in 0 W/m2
22:40 77.7 °F 65.9 °F 29.74 in SE 2.0 mph 2.0 mph 67% 0.00 in 0 W/m2
22:45 77.5 °F 66.1 °F 29.74 in South 1.0 mph 2.0 mph 68% 0.00 in 0 W/m2
22:52 77.2 °F 66.2 °F 29.74 in South 1.0 mph 1.0 mph 69% 0.00 in 0 W/m2
22:58 77.1 °F 66.1 °F 29.74 in SSE 1.0 mph 5.0 mph 69% 0.00 in 0 W/m2
23:04 77.0 °F 66.0 °F 29.74 in SSE 2.0 mph 4.0 mph 69% 0.00 in 0 W/m2
23:09 76.9 °F 66.4 °F 29.74 in SSE 1.0 mph 1.0 mph 70% 0.00 in 0 W/m2
23:15 76.9 °F 66.4 °F 29.74 in SSE 2.0 mph 4.0 mph 70% 0.00 in 0 W/m2
23:22 76.8 °F 66.3 °F 29.74 in SE 2.0 mph 2.0 mph 70% 0.00 in 0 W/m2
23:28 76.9 °F 66.4 °F 29.74 in SSW 3.0 mph 3.0 mph 70% 0.00 in 0 W/m2
23:33 77.0 °F 66.5 °F 29.73 in SSE 3.0 mph 5.0 mph 70% 0.00 in 0 W/m2
23:39 77.0 °F 66.5 °F 29.73 in SSE 4.0 mph 5.0 mph 70% 0.00 in 0 W/m2
23:45 76.9 °F 66.4 °F 29.73 in South 3.0 mph 5.0 mph 70% 0.00 in 0 W/m2
23:58 76.8 °F 66.7 °F 29.73 in South 3.0 mph 6.0 mph 71% 0.00 in 0 W/m2
Country Meadow, Clay, NY, USA
Compliments of Weather Underground - 2 mb